createdAt,value
2024-02-29T00:00:15.644Z,5.52
2024-02-29T00:00:47.142Z,5.53
2024-02-29T00:01:18.650Z,5.52
2024-02-29T00:01:50.180Z,5.53
2024-02-29T00:02:21.704Z,5.52
2024-02-29T00:02:53.474Z,5.53
2024-02-29T00:03:24.891Z,5.54
2024-02-29T00:03:56.451Z,5.55
2024-02-29T00:04:30.640Z,5.56
2024-02-29T00:05:02.082Z,5.55
2024-02-29T00:05:33.503Z,5.55
2024-02-29T00:06:05.387Z,5.56
2024-02-29T00:06:37.009Z,5.57
2024-02-29T00:07:09.577Z,5.58
2024-02-29T00:07:59.904Z,5.58
2024-02-29T00:08:31.360Z,5.58
2024-02-29T00:09:03.617Z,5.60
2024-02-29T00:09:36.951Z,5.59
2024-02-29T00:10:09.730Z,5.59
2024-02-29T00:10:41.567Z,5.58
2024-02-29T00:11:13.342Z,5.59
2024-02-29T00:11:44.880Z,5.59
2024-02-29T00:12:16.500Z,5.59
2024-02-29T00:12:48.065Z,5.60
2024-02-29T00:13:19.529Z,5.60
2024-02-29T00:13:51.360Z,5.60
2024-02-29T00:14:22.923Z,5.59
2024-02-29T00:14:54.353Z,5.60
2024-02-29T00:15:27.351Z,5.63
2024-02-29T00:16:17.143Z,5.61
2024-02-29T00:16:48.815Z,5.63
2024-02-29T00:17:20.972Z,5.63
2024-02-29T00:17:52.517Z,5.64
2024-02-29T00:18:24.126Z,5.66
2024-02-29T00:18:55.719Z,5.64
2024-02-29T00:19:28.223Z,5.64
2024-02-29T00:19:59.702Z,5.66
2024-02-29T00:20:31.150Z,5.67
2024-02-29T00:21:02.752Z,5.66
2024-02-29T00:21:34.585Z,5.66
2024-02-29T00:22:06.779Z,5.67
2024-02-29T00:22:38.929Z,5.66
2024-02-29T00:23:10.398Z,5.67
2024-02-29T00:23:42.545Z,5.66
2024-02-29T00:24:14.082Z,5.66
2024-02-29T00:24:45.534Z,5.67
2024-02-29T00:25:17.225Z,5.68
2024-02-29T00:25:48.682Z,5.68
2024-02-29T00:26:20.119Z,5.69
2024-02-29T00:26:51.576Z,5.69
2024-02-29T00:27:23.209Z,5.69
2024-02-29T00:27:54.634Z,5.70
2024-02-29T00:28:26.075Z,5.70
2024-02-29T00:28:57.828Z,5.70
2024-02-29T00:29:29.614Z,5.70
2024-02-29T00:30:01.097Z,5.72
2024-02-29T00:30:32.538Z,5.72
2024-02-29T00:31:04.726Z,5.72
2024-02-29T00:31:36.728Z,5.72
2024-02-29T00:32:09.190Z,5.73
2024-02-29T00:32:40.719Z,5.71
2024-02-29T00:33:12.275Z,5.71
2024-02-29T00:33:43.773Z,5.73
2024-02-29T00:34:15.753Z,5.72
2024-02-29T00:34:47.365Z,5.71
2024-02-29T00:35:18.884Z,5.71
2024-02-29T00:35:55.392Z,5.72
2024-02-29T00:36:30.548Z,5.73
2024-02-29T00:37:02.109Z,5.73
2024-02-29T00:37:33.659Z,5.73
2024-02-29T00:38:05.412Z,5.73
2024-02-29T00:38:37.934Z,5.72
2024-02-29T00:39:14.725Z,5.72
2024-02-29T00:39:47.122Z,5.71
2024-02-29T00:40:18.682Z,5.70
2024-02-29T00:40:50.121Z,5.73
2024-02-29T00:41:21.589Z,5.73
2024-02-29T00:41:53.453Z,5.71
2024-02-29T00:42:24.921Z,5.72
2024-02-29T00:42:56.518Z,5.71
2024-02-29T00:43:28.018Z,5.71
2024-02-29T00:43:59.472Z,5.71
2024-02-29T00:44:30.942Z,5.71
2024-02-29T00:45:51.716Z,5.71
2024-02-29T00:46:23.695Z,5.72
2024-02-29T00:46:55.287Z,5.72
2024-02-29T00:47:26.827Z,5.72
2024-02-29T00:47:58.361Z,5.72
2024-02-29T00:48:29.885Z,5.72
2024-02-29T00:49:01.411Z,5.72
2024-02-29T00:49:34.326Z,5.73
2024-02-29T00:50:08.253Z,5.73
2024-02-29T00:50:39.706Z,5.73
2024-02-29T00:51:11.263Z,5.74
2024-02-29T00:51:43.272Z,5.74
2024-02-29T00:52:14.843Z,5.74
2024-02-29T00:52:46.318Z,5.75
2024-02-29T00:53:36.351Z,5.75
2024-02-29T00:54:07.914Z,5.76
2024-02-29T00:54:58.062Z,5.77
2024-02-29T00:55:48.449Z,5.75
2024-02-29T00:56:20.263Z,5.77
2024-02-29T00:56:52.309Z,5.76
2024-02-29T00:57:23.778Z,5.76
2024-02-29T00:57:55.316Z,5.75
2024-02-29T00:58:26.952Z,5.74
2024-02-29T00:58:58.430Z,5.74
2024-02-29T00:59:29.934Z,5.74
2024-02-29T01:00:01.424Z,5.74
2024-02-29T01:00:33.002Z,5.74
2024-02-29T01:01:04.916Z,5.74
2024-02-29T01:01:36.544Z,5.74
2024-02-29T01:02:08.222Z,5.73
2024-02-29T01:02:39.761Z,5.74
2024-02-29T01:03:11.381Z,5.73
2024-02-29T01:03:43.382Z,5.74
2024-02-29T01:04:33.377Z,5.74
2024-02-29T01:05:05.396Z,5.74
2024-02-29T01:05:36.887Z,5.74
2024-02-29T01:06:08.560Z,5.73
2024-02-29T01:06:58.831Z,5.75
2024-02-29T01:07:30.364Z,5.75
2024-02-29T01:08:01.820Z,5.74
2024-02-29T01:08:33.667Z,5.75
2024-02-29T01:09:05.489Z,5.76
2024-02-29T01:09:37.065Z,5.75
2024-02-29T01:10:12.880Z,5.76
2024-02-29T01:10:44.504Z,5.76
2024-02-29T01:11:16.201Z,5.76
2024-02-29T01:12:06.657Z,5.77
2024-02-29T01:12:44.435Z,5.78
2024-02-29T01:13:16.018Z,5.78
2024-02-29T01:13:47.652Z,5.77
2024-02-29T01:14:19.231Z,5.77
2024-02-29T01:14:51.853Z,5.77
2024-02-29T01:15:23.404Z,5.78
2024-02-29T01:15:54.978Z,5.79
2024-02-29T01:16:26.571Z,5.78
2024-02-29T01:16:58.245Z,5.79
2024-02-29T01:17:29.826Z,5.79
2024-02-29T01:18:02.315Z,5.79
2024-02-29T01:18:33.879Z,5.78
2024-02-29T01:19:07.403Z,5.80
2024-02-29T01:19:39.563Z,5.79
2024-02-29T01:20:11.085Z,5.79
2024-02-29T01:20:42.652Z,5.80
2024-02-29T01:21:14.121Z,5.80
2024-02-29T01:21:45.620Z,5.80
2024-02-29T01:22:18.187Z,5.80
2024-02-29T01:22:49.784Z,5.80
2024-02-29T01:23:21.312Z,5.81
2024-02-29T01:23:52.931Z,5.81
2024-02-29T01:24:25.693Z,5.81
2024-02-29T01:24:57.302Z,5.82
2024-02-29T01:25:28.899Z,5.81
2024-02-29T01:26:00.359Z,5.81
2024-02-29T01:26:34.129Z,5.81
2024-02-29T01:27:05.798Z,5.81
2024-02-29T01:27:37.358Z,5.81
2024-02-29T01:28:08.889Z,5.83
2024-02-29T01:28:40.345Z,5.83
2024-02-29T01:29:11.807Z,5.82
2024-02-29T01:29:43.525Z,5.82
2024-02-29T01:30:15.059Z,5.82
2024-02-29T01:31:05.381Z,5.81
2024-02-29T01:31:36.871Z,5.83
2024-02-29T01:32:15.834Z,5.83
2024-02-29T01:32:53.892Z,5.83
2024-02-29T01:33:25.440Z,5.83
2024-02-29T01:33:56.956Z,5.83
2024-02-29T01:34:28.400Z,5.84
2024-02-29T01:35:00.347Z,5.84
2024-02-29T01:35:50.344Z,5.83
2024-02-29T01:36:21.819Z,5.84
2024-02-29T01:36:53.387Z,5.83
2024-02-29T01:37:24.831Z,5.84
2024-02-29T01:37:56.383Z,5.83
2024-02-29T01:38:28.017Z,5.85
2024-02-29T01:38:59.451Z,5.85
2024-02-29T01:39:31.118Z,5.84
2024-02-29T01:40:03.042Z,5.84
2024-02-29T01:40:34.605Z,5.84
2024-02-29T01:41:06.776Z,5.84
2024-02-29T01:41:38.278Z,5.86
2024-02-29T01:42:11.501Z,5.85
2024-02-29T01:42:43.097Z,5.85
2024-02-29T01:43:14.635Z,5.85
2024-02-29T01:43:53.901Z,5.86
2024-02-29T01:44:25.360Z,5.86
2024-02-29T01:44:57.392Z,5.86
2024-02-29T01:45:28.983Z,5.86
2024-02-29T01:46:21.251Z,5.88
2024-02-29T01:46:52.772Z,5.87
2024-02-29T01:47:25.480Z,5.88
2024-02-29T01:47:57.164Z,5.87
2024-02-29T01:48:28.875Z,5.87
2024-02-29T01:49:02.616Z,5.86
2024-02-29T01:49:36.068Z,5.87
2024-02-29T01:50:10.105Z,5.87
2024-02-29T01:50:41.617Z,5.87
2024-02-29T01:51:15.240Z,5.88
2024-02-29T01:51:48.768Z,5.88
2024-02-29T01:52:41.442Z,5.88
2024-02-29T01:53:12.965Z,5.90
2024-02-29T01:53:45.225Z,5.89
2024-02-29T01:54:17.112Z,5.89
2024-02-29T01:54:48.617Z,5.89
2024-02-29T01:55:20.180Z,5.89
2024-02-29T01:55:51.676Z,5.89
2024-02-29T01:56:23.440Z,5.89
2024-02-29T01:56:56.642Z,5.91
2024-02-29T01:57:28.778Z,5.91
2024-02-29T01:58:00.334Z,5.91
2024-02-29T01:58:33.404Z,5.91
2024-02-29T01:59:05.842Z,5.91
2024-02-29T01:59:38.107Z,5.91
2024-02-29T02:00:10.339Z,5.91
2024-02-29T02:00:41.953Z,5.91
2024-02-29T02:01:32.309Z,5.92
2024-02-29T02:02:04.177Z,5.93
2024-02-29T02:02:36.048Z,5.93
2024-02-29T02:03:07.576Z,5.94
2024-02-29T02:03:40.179Z,5.94
2024-02-29T02:04:11.761Z,5.95
2024-02-29T02:04:43.299Z,5.95
2024-02-29T02:05:15.182Z,5.95
2024-02-29T02:05:46.698Z,5.95
2024-02-29T02:06:37.563Z,5.96
2024-02-29T02:07:09.730Z,5.97
2024-02-29T02:07:42.606Z,5.98
2024-02-29T02:08:14.225Z,5.98
2024-02-29T02:08:45.734Z,5.98
2024-02-29T02:09:17.155Z,5.98
2024-02-29T02:09:48.751Z,5.98
2024-02-29T02:10:20.336Z,5.98
2024-02-29T02:10:51.793Z,5.97
2024-02-29T02:11:23.311Z,5.97
2024-02-29T02:11:54.819Z,5.98
2024-02-29T02:12:26.320Z,5.98
2024-02-29T02:12:57.845Z,5.97
2024-02-29T02:13:29.284Z,5.98
2024-02-29T02:14:00.673Z,5.98
2024-02-29T02:14:32.094Z,5.99
2024-02-29T02:15:04.128Z,5.98
2024-02-29T02:15:35.875Z,5.97
2024-02-29T02:16:58.673Z,5.98
2024-02-29T02:17:31.612Z,5.99
2024-02-29T02:18:04.198Z,5.98
2024-02-29T02:18:36.676Z,5.99
2024-02-29T02:19:14.198Z,5.99
2024-02-29T02:19:45.714Z,5.99
2024-02-29T02:20:18.511Z,6.00
2024-02-29T02:20:50.773Z,6.01
2024-02-29T02:21:22.236Z,6.01
2024-02-29T02:21:53.674Z,6.00
2024-02-29T02:22:25.528Z,6.01
2024-02-29T02:22:57.009Z,5.99
2024-02-29T02:23:28.420Z,6.01
2024-02-29T02:23:59.947Z,6.01
2024-02-29T02:24:37.671Z,6.01
2024-02-29T02:25:09.239Z,6.01
2024-02-29T02:25:40.701Z,6.01
2024-02-29T02:26:12.109Z,6.01
2024-02-29T02:26:43.528Z,6.02
2024-02-29T02:27:14.986Z,5.99
2024-02-29T02:28:35.251Z,6.02
2024-02-29T02:29:09.382Z,6.02
2024-02-29T02:29:40.948Z,6.03
2024-02-29T02:30:12.548Z,6.03
2024-02-29T02:30:44.171Z,6.03
2024-02-29T02:31:16.361Z,6.04
2024-02-29T02:31:47.836Z,6.04
2024-02-29T02:32:19.314Z,6.04
2024-02-29T02:32:50.771Z,6.05
2024-02-29T02:33:22.299Z,6.05
2024-02-29T02:33:53.770Z,6.05
2024-02-29T02:34:25.511Z,6.05
2024-02-29T02:34:57.013Z,6.05
2024-02-29T02:35:28.507Z,6.05
2024-02-29T02:35:59.936Z,6.05
2024-02-29T02:36:31.337Z,6.06
2024-02-29T02:37:02.815Z,6.07
2024-02-29T02:37:35.123Z,6.07
2024-02-29T02:38:06.934Z,6.07
2024-02-29T02:38:38.351Z,6.07
2024-02-29T02:39:09.765Z,6.06
2024-02-29T02:39:41.347Z,6.07
2024-02-29T02:40:13.248Z,6.07
2024-02-29T02:41:03.506Z,6.09
2024-02-29T02:41:35.068Z,6.08
2024-02-29T02:42:06.519Z,6.08
2024-02-29T02:42:38.047Z,6.08
2024-02-29T02:43:09.538Z,6.08
2024-02-29T02:44:29.782Z,6.09
2024-02-29T02:45:19.721Z,6.08
2024-02-29T02:45:51.193Z,6.08
2024-02-29T02:46:22.629Z,6.08
2024-02-29T02:46:54.207Z,6.08
2024-02-29T02:47:25.756Z,6.08
2024-02-29T02:47:57.457Z,6.09
2024-02-29T02:48:28.943Z,6.08
2024-02-29T02:49:18.733Z,6.09
2024-02-29T02:49:50.217Z,6.09
2024-02-29T02:50:21.758Z,6.09
2024-02-29T02:50:53.307Z,6.10
2024-02-29T02:51:28.243Z,6.09
2024-02-29T02:51:59.708Z,6.09
2024-02-29T02:52:31.166Z,6.09
2024-02-29T02:53:05.257Z,6.10
2024-02-29T02:54:25.904Z,6.11
2024-02-29T02:55:16.252Z,6.12
2024-02-29T02:55:47.755Z,6.11
2024-02-29T02:56:19.242Z,6.11
2024-02-29T02:56:50.718Z,6.11
2024-02-29T02:57:22.277Z,6.12
2024-02-29T02:57:53.727Z,6.12
2024-02-29T02:58:25.218Z,6.12
2024-02-29T02:58:56.723Z,6.12
2024-02-29T02:59:29.226Z,6.12
2024-02-29T03:00:00.698Z,6.12
2024-02-29T03:00:32.265Z,6.11
2024-02-29T03:01:04.336Z,6.12
2024-02-29T03:01:36.043Z,6.13
2024-02-29T03:02:07.551Z,6.13
2024-02-29T03:02:40.631Z,6.13
2024-02-29T03:03:12.099Z,6.13
2024-02-29T03:03:43.519Z,6.12
2024-02-29T03:04:16.429Z,6.14
2024-02-29T03:04:47.966Z,6.13
2024-02-29T03:05:21.204Z,6.13
2024-02-29T03:06:11.225Z,6.12
2024-02-29T03:06:42.677Z,6.13
2024-02-29T03:07:14.155Z,6.13
2024-02-29T03:07:45.818Z,6.13
2024-02-29T03:08:17.294Z,6.13
2024-02-29T03:08:48.743Z,6.13
2024-02-29T03:09:20.119Z,6.13
2024-02-29T03:09:51.636Z,6.14
2024-02-29T03:10:23.044Z,6.14
2024-02-29T03:10:54.716Z,6.15
2024-02-29T03:11:26.281Z,6.16
2024-02-29T03:11:57.735Z,6.15
2024-02-29T03:12:48.554Z,6.16
2024-02-29T03:13:20.184Z,6.15
2024-02-29T03:13:51.616Z,6.15
2024-02-29T03:14:23.053Z,6.16
2024-02-29T03:14:54.467Z,6.16
2024-02-29T03:15:25.847Z,6.17
2024-02-29T03:15:57.407Z,6.17
2024-02-29T03:16:29.097Z,6.17
2024-02-29T03:17:00.552Z,6.16
2024-02-29T03:17:50.526Z,6.17
2024-02-29T03:18:21.931Z,6.16
2024-02-29T03:18:53.405Z,6.15
2024-02-29T03:19:24.866Z,6.15
2024-02-29T03:19:56.308Z,6.14
2024-02-29T03:20:27.755Z,6.14
2024-02-29T03:20:59.467Z,6.14
2024-02-29T03:21:31.018Z,6.13
2024-02-29T03:22:02.494Z,6.12
2024-02-29T03:22:34.056Z,6.14
2024-02-29T03:23:07.449Z,6.13
2024-02-29T03:23:38.977Z,6.12
2024-02-29T03:24:10.468Z,6.13
2024-02-29T03:24:45.909Z,6.12
2024-02-29T03:25:17.716Z,6.12
2024-02-29T03:25:49.202Z,6.12
2024-02-29T03:26:20.811Z,6.12
2024-02-29T03:26:52.237Z,6.12
2024-02-29T03:27:23.633Z,6.13
2024-02-29T03:27:55.389Z,6.13
2024-02-29T03:28:26.881Z,6.14
2024-02-29T03:28:58.441Z,6.14
2024-02-29T03:29:32.024Z,6.15
2024-02-29T03:30:03.831Z,6.14
2024-02-29T03:30:35.309Z,6.14
2024-02-29T03:31:15.807Z,6.15
2024-02-29T03:31:47.274Z,6.14
2024-02-29T03:32:21.574Z,6.13
2024-02-29T03:32:54.918Z,6.13
2024-02-29T03:33:26.444Z,6.13
2024-02-29T03:33:58.038Z,6.15
2024-02-29T03:34:29.559Z,6.15
2024-02-29T03:35:02.781Z,6.15
2024-02-29T03:35:34.209Z,6.16
2024-02-29T03:36:06.108Z,6.15
2024-02-29T03:36:56.196Z,6.17
2024-02-29T03:37:27.640Z,6.15
2024-02-29T03:37:59.076Z,6.15
2024-02-29T03:38:30.463Z,6.14
2024-02-29T03:39:01.859Z,6.13
2024-02-29T03:39:33.339Z,6.12
2024-02-29T03:40:05.523Z,6.14
2024-02-29T03:40:36.928Z,6.13
2024-02-29T03:41:08.341Z,6.13
2024-02-29T03:41:58.005Z,6.14
2024-02-29T03:42:29.791Z,6.13
2024-02-29T03:43:01.978Z,6.14
2024-02-29T03:43:35.760Z,6.14
2024-02-29T03:44:07.191Z,6.13
2024-02-29T03:44:42.503Z,6.14
2024-02-29T03:45:32.507Z,6.13
2024-02-29T03:46:04.263Z,6.14
2024-02-29T03:46:35.771Z,6.13
2024-02-29T03:47:07.577Z,6.13
2024-02-29T03:47:57.692Z,6.13
2024-02-29T03:48:29.878Z,6.12
2024-02-29T03:49:01.399Z,6.13
2024-02-29T03:49:32.918Z,6.12
2024-02-29T03:50:04.610Z,6.12
2024-02-29T03:50:36.070Z,6.12
2024-02-29T03:51:07.560Z,6.11
2024-02-29T03:51:40.202Z,6.11
2024-02-29T03:52:11.887Z,6.09
2024-02-29T03:52:43.378Z,6.09
2024-02-29T03:53:14.813Z,6.08
2024-02-29T03:53:46.244Z,6.08
2024-02-29T03:54:17.681Z,6.07
2024-02-29T03:54:49.208Z,6.07
2024-02-29T03:55:20.828Z,6.07
2024-02-29T03:55:52.364Z,6.05
2024-02-29T03:56:24.451Z,6.06
2024-02-29T03:56:56.003Z,6.06
2024-02-29T03:57:27.519Z,6.04
2024-02-29T03:57:59.126Z,6.04
2024-02-29T03:58:30.608Z,6.05
2024-02-29T03:59:02.028Z,6.05
2024-02-29T03:59:33.539Z,6.05
2024-02-29T04:00:11.824Z,6.05
2024-02-29T04:00:46.258Z,6.06
2024-02-29T04:01:17.849Z,6.06
2024-02-29T04:01:50.401Z,6.04
2024-02-29T04:02:23.626Z,6.05
2024-02-29T04:02:55.047Z,6.04
2024-02-29T04:03:26.634Z,6.03
2024-02-29T04:04:18.279Z,6.05
2024-02-29T04:04:49.837Z,6.04
2024-02-29T04:05:25.382Z,6.04
2024-02-29T04:05:56.996Z,6.04
2024-02-29T04:06:28.394Z,6.04
2024-02-29T04:06:59.949Z,6.03
2024-02-29T04:07:31.433Z,6.03
2024-02-29T04:08:04.903Z,6.02
2024-02-29T04:08:36.980Z,6.02
2024-02-29T04:09:08.428Z,6.03
2024-02-29T04:09:58.632Z,6.03
2024-02-29T04:10:33.331Z,6.01
2024-02-29T04:11:05.406Z,6.02
2024-02-29T04:11:37.427Z,6.01
2024-02-29T04:12:09.060Z,6.01
2024-02-29T04:12:40.526Z,6.01
2024-02-29T04:13:12.172Z,6.02
2024-02-29T04:13:43.624Z,6.01
2024-02-29T04:14:15.092Z,6.01
2024-02-29T04:14:46.527Z,6.00
2024-02-29T04:15:36.730Z,6.00
2024-02-29T04:16:08.688Z,5.99
2024-02-29T04:16:40.226Z,6.01
2024-02-29T04:17:11.631Z,6.00
2024-02-29T04:18:01.556Z,6.01
2024-02-29T04:18:33.061Z,6.00
2024-02-29T04:19:05.461Z,6.01
2024-02-29T04:19:39.087Z,6.01
2024-02-29T04:20:10.738Z,6.01
2024-02-29T04:20:42.259Z,5.99
2024-02-29T04:21:13.673Z,6.01
2024-02-29T04:21:47.027Z,5.99
2024-02-29T04:22:18.593Z,5.98
2024-02-29T04:22:50.082Z,5.98
2024-02-29T04:23:21.546Z,5.98
2024-02-29T04:23:52.979Z,5.98
2024-02-29T04:24:24.398Z,5.97
2024-02-29T04:24:55.875Z,5.98
2024-02-29T04:25:28.056Z,5.97
2024-02-29T04:26:48.389Z,5.98
2024-02-29T04:27:19.898Z,5.97
2024-02-29T04:27:52.165Z,5.98
2024-02-29T04:28:23.677Z,5.97
2024-02-29T04:28:55.381Z,5.97
2024-02-29T04:29:26.854Z,5.97
2024-02-29T04:29:58.368Z,5.98
2024-02-29T04:30:30.602Z,5.97
2024-02-29T04:31:05.515Z,5.96
2024-02-29T04:31:36.960Z,5.97
2024-02-29T04:32:08.441Z,5.96
2024-02-29T04:32:40.034Z,5.95
2024-02-29T04:33:12.799Z,5.96
2024-02-29T04:33:45.526Z,5.95
2024-02-29T04:34:17.143Z,5.95
2024-02-29T04:34:48.905Z,5.94
2024-02-29T04:35:20.412Z,5.96
2024-02-29T04:35:51.831Z,5.96
2024-02-29T04:36:23.280Z,5.96
2024-02-29T04:36:55.060Z,5.96
2024-02-29T04:37:26.552Z,5.96
2024-02-29T04:37:57.997Z,5.96
2024-02-29T04:38:29.399Z,5.96
2024-02-29T04:39:00.865Z,5.96
2024-02-29T04:39:32.520Z,5.95
2024-02-29T04:40:05.648Z,5.95
2024-02-29T04:40:38.897Z,5.95
2024-02-29T04:41:10.522Z,5.93
2024-02-29T04:41:42.026Z,5.93
2024-02-29T04:42:13.468Z,5.95
2024-02-29T04:42:44.998Z,5.97
2024-02-29T04:43:17.746Z,5.95
2024-02-29T04:43:49.618Z,5.95
2024-02-29T04:44:21.082Z,5.95
2024-02-29T04:44:52.601Z,5.93
2024-02-29T04:45:27.830Z,5.93
2024-02-29T04:46:00.784Z,5.93
2024-02-29T04:46:32.311Z,5.93
2024-02-29T04:47:04.130Z,5.94
2024-02-29T04:47:35.997Z,5.95
2024-02-29T04:48:08.053Z,5.96
2024-02-29T04:49:28.396Z,5.96
2024-02-29T04:49:59.930Z,5.93
2024-02-29T04:50:31.386Z,5.92
2024-02-29T04:51:02.960Z,5.91
2024-02-29T04:51:35.093Z,5.91
2024-02-29T04:52:06.636Z,5.91
2024-02-29T04:52:38.097Z,5.90
2024-02-29T04:53:09.578Z,5.89
2024-02-29T04:53:41.136Z,5.91
2024-02-29T04:54:12.592Z,5.90
2024-02-29T04:54:44.228Z,5.89
2024-02-29T04:55:15.950Z,5.89
2024-02-29T04:55:47.439Z,5.90
2024-02-29T04:56:19.419Z,5.92
2024-02-29T04:56:50.917Z,5.91
2024-02-29T04:57:22.370Z,5.91
2024-02-29T04:57:53.868Z,5.91
2024-02-29T04:58:25.375Z,5.91
2024-02-29T04:58:56.834Z,5.91
2024-02-29T04:59:28.296Z,5.91
2024-02-29T04:59:59.768Z,5.91
2024-02-29T05:00:31.195Z,5.89
2024-02-29T05:01:03.311Z,5.90
2024-02-29T05:01:35.075Z,5.90
2024-02-29T05:02:07.718Z,5.91
2024-02-29T05:02:39.512Z,5.91
2024-02-29T05:03:10.915Z,5.90
2024-02-29T05:03:42.323Z,5.92
2024-02-29T05:04:13.994Z,5.92
2024-02-29T05:04:46.243Z,5.92
2024-02-29T05:05:17.698Z,5.91
2024-02-29T05:05:49.181Z,5.93
2024-02-29T05:06:39.365Z,5.91
2024-02-29T05:07:12.136Z,5.92
2024-02-29T05:08:33.816Z,5.94
2024-02-29T05:09:07.541Z,5.93
2024-02-29T05:09:39.585Z,5.94
2024-02-29T05:10:11.451Z,5.93
2024-02-29T05:10:43.785Z,5.93
2024-02-29T05:11:15.301Z,5.92
2024-02-29T05:11:48.070Z,5.92
2024-02-29T05:12:21.138Z,5.93
2024-02-29T05:12:53.708Z,5.92
2024-02-29T05:13:25.195Z,5.92
2024-02-29T05:13:58.822Z,5.92
2024-02-29T05:14:31.356Z,5.92
2024-02-29T05:15:03.001Z,5.93
2024-02-29T05:15:34.617Z,5.92
2024-02-29T05:16:06.628Z,5.93
2024-02-29T05:16:38.068Z,5.93
2024-02-29T05:17:09.529Z,5.94
2024-02-29T05:17:40.995Z,5.95
2024-02-29T05:18:12.549Z,5.95
2024-02-29T05:19:33.144Z,5.97
2024-02-29T05:20:05.147Z,5.95
2024-02-29T05:20:36.713Z,5.96
2024-02-29T05:21:08.168Z,5.96
2024-02-29T05:21:58.372Z,5.96
2024-02-29T05:22:29.861Z,5.94
2024-02-29T05:23:01.354Z,5.94
2024-02-29T05:23:34.873Z,5.95
2024-02-29T05:24:06.420Z,5.94
2024-02-29T05:24:37.888Z,5.95
2024-02-29T05:25:11.103Z,5.95
2024-02-29T05:25:42.809Z,5.95
2024-02-29T05:26:33.057Z,5.95
2024-02-29T05:27:04.548Z,5.95
2024-02-29T05:27:36.708Z,5.95
2024-02-29T05:28:08.234Z,5.95
2024-02-29T05:28:39.813Z,5.96
2024-02-29T05:29:11.405Z,5.96
2024-02-29T05:29:42.885Z,5.95
2024-02-29T05:30:15.846Z,5.95
2024-02-29T05:30:47.513Z,5.96
2024-02-29T05:31:19.035Z,5.96
2024-02-29T05:31:53.821Z,5.96
2024-02-29T05:32:25.268Z,5.97
2024-02-29T05:32:56.771Z,5.97
2024-02-29T05:33:28.226Z,5.97
2024-02-29T05:33:59.690Z,5.96
2024-02-29T05:34:31.062Z,5.95
2024-02-29T05:35:02.566Z,5.95
2024-02-29T05:35:34.550Z,5.96
2024-02-29T05:36:06.204Z,5.97
2024-02-29T05:36:38.085Z,5.96
2024-02-29T05:37:09.585Z,5.98
2024-02-29T05:37:41.160Z,5.97
2024-02-29T05:38:12.663Z,5.97
2024-02-29T05:38:48.685Z,5.97
2024-02-29T05:39:20.147Z,5.98
2024-02-29T05:39:51.707Z,5.97
2024-02-29T05:40:23.284Z,5.99
2024-02-29T05:40:54.916Z,5.98
2024-02-29T05:41:26.525Z,5.98
2024-02-29T05:41:57.971Z,5.98
2024-02-29T05:42:29.588Z,5.98
2024-02-29T05:43:01.063Z,5.99
2024-02-29T05:43:35.721Z,5.99
2024-02-29T05:44:09.787Z,5.99
2024-02-29T05:44:59.593Z,6.00
2024-02-29T05:45:30.984Z,5.99
2024-02-29T05:46:02.877Z,6.00
2024-02-29T05:46:34.442Z,6.00
2024-02-29T05:47:06.089Z,6.00
2024-02-29T05:47:37.560Z,5.99
2024-02-29T05:48:09.308Z,5.99
2024-02-29T05:48:40.865Z,5.99
2024-02-29T05:49:12.566Z,6.01
2024-02-29T05:50:02.588Z,6.01
2024-02-29T05:50:34.457Z,6.01
2024-02-29T05:51:08.351Z,6.01
2024-02-29T05:51:39.800Z,6.01
2024-02-29T05:52:11.945Z,6.01
2024-02-29T05:52:43.858Z,6.02
2024-02-29T05:53:15.923Z,6.03
2024-02-29T05:53:47.362Z,6.03
2024-02-29T05:54:18.826Z,6.04
2024-02-29T05:54:50.552Z,6.04
2024-02-29T05:55:22.085Z,6.04
2024-02-29T05:55:53.683Z,6.04
2024-02-29T05:56:25.115Z,6.06
2024-02-29T05:56:58.375Z,6.04
2024-02-29T05:57:33.409Z,6.06
2024-02-29T05:58:05.298Z,6.05
2024-02-29T05:58:36.737Z,6.05
2024-02-29T05:59:08.174Z,6.07
2024-02-29T05:59:39.706Z,6.07
2024-02-29T06:00:11.885Z,6.06
2024-02-29T06:00:43.495Z,6.07
2024-02-29T06:01:15.114Z,6.06
2024-02-29T06:01:46.774Z,6.07
2024-02-29T06:02:18.352Z,6.08
2024-02-29T06:02:52.014Z,6.08
2024-02-29T06:03:42.702Z,6.08
2024-02-29T06:04:14.219Z,6.06
2024-02-29T06:04:45.702Z,6.07
2024-02-29T06:05:17.156Z,6.07
2024-02-29T06:05:48.613Z,6.07
2024-02-29T06:06:20.133Z,6.07
2024-02-29T06:06:51.624Z,6.06
2024-02-29T06:07:23.137Z,6.07
2024-02-29T06:08:17.018Z,6.07
2024-02-29T06:08:48.712Z,6.07
2024-02-29T06:09:20.176Z,6.06
2024-02-29T06:09:52.923Z,6.06
2024-02-29T06:10:24.437Z,6.06
2024-02-29T06:10:55.925Z,6.06
2024-02-29T06:11:27.462Z,6.06
2024-02-29T06:12:17.314Z,6.06
2024-02-29T06:12:48.896Z,6.07
2024-02-29T06:13:20.472Z,6.07
2024-02-29T06:13:51.923Z,6.06
2024-02-29T06:14:25.557Z,6.06
2024-02-29T06:15:47.121Z,6.07
2024-02-29T06:16:18.627Z,6.06
2024-02-29T06:16:50.142Z,6.07
2024-02-29T06:17:40.596Z,6.07
2024-02-29T06:18:14.457Z,6.07
2024-02-29T06:18:47.903Z,6.09
2024-02-29T06:19:19.671Z,6.08
2024-02-29T06:19:51.113Z,6.08
2024-02-29T06:20:41.228Z,6.08
2024-02-29T06:21:12.636Z,6.08
2024-02-29T06:21:44.181Z,6.08
2024-02-29T06:22:16.053Z,6.09
2024-02-29T06:22:47.560Z,6.08
2024-02-29T06:23:19.779Z,6.08
2024-02-29T06:23:51.200Z,6.08
2024-02-29T06:24:22.707Z,6.09
2024-02-29T06:24:54.587Z,6.08
2024-02-29T06:25:26.041Z,6.09
2024-02-29T06:25:57.477Z,6.11
2024-02-29T06:26:28.853Z,6.10
2024-02-29T06:27:00.574Z,6.10
2024-02-29T06:27:32.063Z,6.12
2024-02-29T06:28:24.442Z,6.12
2024-02-29T06:28:56.496Z,6.11
2024-02-29T06:29:27.944Z,6.12
2024-02-29T06:29:59.372Z,6.12
2024-02-29T06:30:33.471Z,6.12
2024-02-29T06:31:26.673Z,6.14
2024-02-29T06:31:58.384Z,6.14
2024-02-29T06:32:29.866Z,6.15
2024-02-29T06:33:01.764Z,6.15
2024-02-29T06:33:33.379Z,6.15
2024-02-29T06:34:04.868Z,6.15
2024-02-29T06:34:36.359Z,6.14
2024-02-29T06:35:08.362Z,6.16
2024-02-29T06:35:39.806Z,6.16
2024-02-29T06:36:12.330Z,6.17
2024-02-29T06:36:44.096Z,6.16
2024-02-29T06:37:15.658Z,6.16
2024-02-29T06:37:47.145Z,6.17
2024-02-29T06:38:18.638Z,6.16
2024-02-29T06:38:50.097Z,6.15
2024-02-29T06:39:21.514Z,6.15
2024-02-29T06:39:57.223Z,6.16
2024-02-29T06:40:28.666Z,6.15
2024-02-29T06:41:00.212Z,6.15
2024-02-29T06:41:50.320Z,6.16
2024-02-29T06:42:40.470Z,6.17
2024-02-29T06:43:11.994Z,6.17
2024-02-29T06:43:43.572Z,6.17
2024-02-29T06:44:16.325Z,6.18
2024-02-29T06:44:47.760Z,6.19
2024-02-29T06:45:19.311Z,6.18
2024-02-29T06:45:52.019Z,6.19
2024-02-29T06:46:23.603Z,6.19
2024-02-29T06:46:55.045Z,6.19
2024-02-29T06:47:26.808Z,6.19
2024-02-29T06:47:58.694Z,6.19
2024-02-29T06:48:30.337Z,6.20
2024-02-29T06:49:02.749Z,6.21
2024-02-29T06:49:34.166Z,6.21
2024-02-29T06:50:25.128Z,6.22
2024-02-29T06:50:56.499Z,6.23
2024-02-29T06:51:31.162Z,6.23
2024-02-29T06:52:02.647Z,6.23
2024-02-29T06:52:34.178Z,6.23
2024-02-29T06:53:05.612Z,6.23
2024-02-29T06:53:37.336Z,6.22
2024-02-29T06:54:08.808Z,6.24
2024-02-29T06:54:42.746Z,6.24
2024-02-29T06:55:14.339Z,6.24
2024-02-29T06:55:45.857Z,6.24
2024-02-29T06:56:17.259Z,6.26
2024-02-29T06:56:48.911Z,6.27
2024-02-29T06:57:20.403Z,6.26
2024-02-29T06:57:52.346Z,6.27
2024-02-29T06:58:24.039Z,6.27
2024-02-29T06:58:55.869Z,6.27
2024-02-29T06:59:27.339Z,6.27
2024-02-29T06:59:58.946Z,6.29
2024-02-29T07:00:30.463Z,6.30
2024-02-29T07:01:02.230Z,6.31
2024-02-29T07:01:34.060Z,6.32
2024-02-29T07:02:06.323Z,6.32
2024-02-29T07:02:38.338Z,6.31
2024-02-29T07:03:10.407Z,6.31
2024-02-29T07:03:42.020Z,6.33
2024-02-29T07:04:13.535Z,6.33
2024-02-29T07:04:46.524Z,6.32
2024-02-29T07:05:18.116Z,6.32
2024-02-29T07:05:50.278Z,6.33
2024-02-29T07:06:21.675Z,6.34
2024-02-29T07:06:53.199Z,6.34
2024-02-29T07:07:26.201Z,6.34
2024-02-29T07:07:57.704Z,6.35
2024-02-29T07:08:29.228Z,6.36
2024-02-29T07:09:19.311Z,6.35
2024-02-29T07:09:51.292Z,6.35
2024-02-29T07:10:23.452Z,6.36
2024-02-29T07:10:54.991Z,6.37
2024-02-29T07:11:27.240Z,6.36
2024-02-29T07:11:58.715Z,6.35
2024-02-29T07:12:30.993Z,6.36
2024-02-29T07:13:02.566Z,6.36
2024-02-29T07:13:34.041Z,6.36
2024-02-29T07:14:05.496Z,6.37
2024-02-29T07:14:36.947Z,6.38
2024-02-29T07:15:08.695Z,6.38
2024-02-29T07:15:40.168Z,6.39
2024-02-29T07:16:11.717Z,6.39
2024-02-29T07:16:44.105Z,6.40
2024-02-29T07:17:15.586Z,6.41
2024-02-29T07:17:47.163Z,6.41
2024-02-29T07:18:18.798Z,6.41
2024-02-29T07:18:50.436Z,6.41
2024-02-29T07:19:21.925Z,6.40
2024-02-29T07:20:11.896Z,6.42
2024-02-29T07:20:43.333Z,6.43
2024-02-29T07:21:14.863Z,6.44
2024-02-29T07:21:46.269Z,6.44
2024-02-29T07:22:17.817Z,6.45
2024-02-29T07:22:49.279Z,6.45
2024-02-29T07:23:20.761Z,6.47
2024-02-29T07:23:52.168Z,6.46
2024-02-29T07:24:23.669Z,6.46
2024-02-29T07:25:13.444Z,6.46
2024-02-29T07:25:44.913Z,6.48
2024-02-29T07:26:16.693Z,6.48
2024-02-29T07:26:48.135Z,6.48
2024-02-29T07:27:19.617Z,6.48
2024-02-29T07:27:51.170Z,6.47